sensor_id;sensor_type;location;lat;lon;timestamp;P1;durP1;ratioP1;P2;durP2;ratioP2
57291;SDS011;43144;50.972;18.220;2023-03-17T00:01:12;57.60;;;34.20;;
57291;SDS011;43144;50.972;18.220;2023-03-17T00:03:42;54.40;;;34.90;;
57291;SDS011;43144;50.972;18.220;2023-03-17T00:06:12;52.90;;;33.60;;
57291;SDS011;43144;50.972;18.220;2023-03-17T00:08:43;50.10;;;33.30;;
57291;SDS011;43144;50.972;18.220;2023-03-17T00:11:12;46.60;;;31.70;;
57291;SDS011;43144;50.972;18.220;2023-03-17T00:13:43;42.60;;;31.20;;
57291;SDS011;43144;50.972;18.220;2023-03-17T00:16:14;40.80;;;28.80;;
57291;SDS011;43144;50.972;18.220;2023-03-17T00:18:44;40.70;;;28.80;;
57291;SDS011;43144;50.972;18.220;2023-03-17T00:21:14;38.40;;;26.40;;
57291;SDS011;43144;50.972;18.220;2023-03-17T00:23:47;38.40;;;26.60;;
57291;SDS011;43144;50.972;18.220;2023-03-17T00:26:16;41.20;;;26.90;;
57291;SDS011;43144;50.972;18.220;2023-03-17T00:28:45;45.50;;;28.70;;
57291;SDS011;43144;50.972;18.220;2023-03-17T00:31:14;43.30;;;30.00;;
57291;SDS011;43144;50.972;18.220;2023-03-17T00:33:44;49.30;;;33.40;;
57291;SDS011;43144;50.972;18.220;2023-03-17T00:36:15;39.20;;;29.10;;
57291;SDS011;43144;50.972;18.220;2023-03-17T00:38:45;40.00;;;27.10;;
57291;SDS011;43144;50.972;18.220;2023-03-17T00:41:14;38.40;;;26.20;;
57291;SDS011;43144;50.972;18.220;2023-03-17T00:43:42;36.90;;;24.20;;
57291;SDS011;43144;50.972;18.220;2023-03-17T00:46:12;29.60;;;20.60;;
57291;SDS011;43144;50.972;18.220;2023-03-17T00:48:50;32.50;;;23.10;;
57291;SDS011;43144;50.972;18.220;2023-03-17T00:51:18;30.60;;;21.20;;
57291;SDS011;43144;50.972;18.220;2023-03-17T00:53:47;30.80;;;20.50;;
57291;SDS011;43144;50.972;18.220;2023-03-17T00:56:16;27.70;;;19.60;;
57291;SDS011;43144;50.972;18.220;2023-03-17T00:58:45;26.00;;;19.30;;
57291;SDS011;43144;50.972;18.220;2023-03-17T01:01:15;31.70;;;20.30;;
57291;SDS011;43144;50.972;18.220;2023-03-17T01:03:44;28.30;;;20.40;;
57291;SDS011;43144;50.972;18.220;2023-03-17T01:06:12;28.00;;;20.50;;
57291;SDS011;43144;50.972;18.220;2023-03-17T01:08:41;27.70;;;19.10;;
57291;SDS011;43144;50.972;18.220;2023-03-17T01:11:13;26.90;;;19.00;;
57291;SDS011;43144;50.972;18.220;2023-03-17T01:13:43;25.00;;;18.70;;
57291;SDS011;43144;50.972;18.220;2023-03-17T01:16:12;28.10;;;19.80;;
57291;SDS011;43144;50.972;18.220;2023-03-17T01:18:41;29.10;;;19.60;;
57291;SDS011;43144;50.972;18.220;2023-03-17T01:21:09;27.00;;;19.70;;
57291;SDS011;43144;50.972;18.220;2023-03-17T01:23:38;29.70;;;20.30;;
57291;SDS011;43144;50.972;18.220;2023-03-17T01:26:07;26.20;;;18.90;;
57291;SDS011;43144;50.972;18.220;2023-03-17T01:28:35;26.50;;;18.50;;
57291;SDS011;43144;50.972;18.220;2023-03-17T01:31:04;25.70;;;18.40;;
57291;SDS011;43144;50.972;18.220;2023-03-17T01:33:33;26.10;;;18.40;;
57291;SDS011;43144;50.972;18.220;2023-03-17T01:36:01;25.40;;;19.10;;
57291;SDS011;43144;50.972;18.220;2023-03-17T01:38:30;28.20;;;19.20;;
57291;SDS011;43144;50.972;18.220;2023-03-17T01:40:59;26.40;;;19.60;;
57291;SDS011;43144;50.972;18.220;2023-03-17T01:43:28;28.00;;;19.30;;
57291;SDS011;43144;50.972;18.220;2023-03-17T01:48:57;32.90;;;22.60;;
57291;SDS011;43144;50.972;18.220;2023-03-17T01:51:35;29.60;;;20.60;;
57291;SDS011;43144;50.972;18.220;2023-03-17T01:54:06;31.20;;;20.80;;
57291;SDS011;43144;50.972;18.220;2023-03-17T01:56:36;32.00;;;21.60;;
57291;SDS011;43144;50.972;18.220;2023-03-17T01:59:07;30.20;;;22.00;;
57291;SDS011;43144;50.972;18.220;2023-03-17T02:01:41;30.80;;;22.00;;
57291;SDS011;43144;50.972;18.220;2023-03-17T02:04:12;35.00;;;23.20;;
57291;SDS011;43144;50.972;18.220;2023-03-17T02:06:41;36.60;;;22.40;;
57291;SDS011;43144;50.972;18.220;2023-03-17T02:09:10;32.80;;;22.50;;
57291;SDS011;43144;50.972;18.220;2023-03-17T02:11:38;34.70;;;24.60;;
57291;SDS011;43144;50.972;18.220;2023-03-17T02:14:08;37.90;;;24.70;;
57291;SDS011;43144;50.972;18.220;2023-03-17T02:16:36;36.90;;;24.50;;
57291;SDS011;43144;50.972;18.220;2023-03-17T02:19:07;33.90;;;25.00;;
57291;SDS011;43144;50.972;18.220;2023-03-17T02:21:38;35.00;;;24.50;;
57291;SDS011;43144;50.972;18.220;2023-03-17T02:24:20;37.20;;;25.20;;
57291;SDS011;43144;50.972;18.220;2023-03-17T02:26:53;36.60;;;26.00;;
57291;SDS011;43144;50.972;18.220;2023-03-17T02:29:23;37.60;;;26.70;;
57291;SDS011;43144;50.972;18.220;2023-03-17T02:31:51;41.60;;;27.30;;
57291;SDS011;43144;50.972;18.220;2023-03-17T02:34:20;39.40;;;26.90;;
57291;SDS011;43144;50.972;18.220;2023-03-17T02:36:49;44.80;;;29.60;;
57291;SDS011;43144;50.972;18.220;2023-03-17T02:39:18;47.30;;;29.30;;
57291;SDS011;43144;50.972;18.220;2023-03-17T02:41:46;43.20;;;28.80;;
57291;SDS011;43144;50.972;18.220;2023-03-17T02:44:15;40.80;;;28.70;;
57291;SDS011;43144;50.972;18.220;2023-03-17T02:46:43;48.20;;;30.50;;
57291;SDS011;43144;50.972;18.220;2023-03-17T02:49:12;45.10;;;30.40;;
57291;SDS011;43144;50.972;18.220;2023-03-17T02:51:41;44.50;;;30.90;;
57291;SDS011;43144;50.972;18.220;2023-03-17T02:54:10;45.40;;;31.50;;
57291;SDS011;43144;50.972;18.220;2023-03-17T02:56:38;52.50;;;33.10;;
57291;SDS011;43144;50.972;18.220;2023-03-17T02:59:07;46.40;;;32.40;;
57291;SDS011;43144;50.972;18.220;2023-03-17T03:01:36;52.20;;;35.00;;
57291;SDS011;43144;50.972;18.220;2023-03-17T03:04:05;51.00;;;34.40;;
57291;SDS011;43144;50.972;18.220;2023-03-17T03:06:33;52.00;;;35.60;;
57291;SDS011;43144;50.972;18.220;2023-03-17T03:09:02;55.10;;;34.90;;
57291;SDS011;43144;50.972;18.220;2023-03-17T03:11:31;59.90;;;37.80;;
57291;SDS011;43144;50.972;18.220;2023-03-17T03:13:59;55.80;;;37.40;;
57291;SDS011;43144;50.972;18.220;2023-03-17T03:16:28;55.50;;;38.00;;
57291;SDS011;43144;50.972;18.220;2023-03-17T03:18:57;55.30;;;37.80;;
57291;SDS011;43144;50.972;18.220;2023-03-17T03:21:25;55.40;;;38.00;;
57291;SDS011;43144;50.972;18.220;2023-03-17T03:23:54;58.30;;;38.10;;
57291;SDS011;43144;50.972;18.220;2023-03-17T03:26:22;58.80;;;39.30;;
57291;SDS011;43144;50.972;18.220;2023-03-17T03:28:51;58.70;;;39.20;;
57291;SDS011;43144;50.972;18.220;2023-03-17T03:31:19;57.80;;;37.50;;
57291;SDS011;43144;50.972;18.220;2023-03-17T03:33:48;58.10;;;38.90;;
57291;SDS011;43144;50.972;18.220;2023-03-17T03:36:16;54.70;;;38.50;;
57291;SDS011;43144;50.972;18.220;2023-03-17T03:38:45;57.10;;;38.10;;
57291;SDS011;43144;50.972;18.220;2023-03-17T03:41:13;58.90;;;37.90;;
57291;SDS011;43144;50.972;18.220;2023-03-17T03:43:42;56.90;;;39.00;;
57291;SDS011;43144;50.972;18.220;2023-03-17T03:46:11;60.90;;;38.70;;
57291;SDS011;43144;50.972;18.220;2023-03-17T03:48:39;60.60;;;38.90;;
57291;SDS011;43144;50.972;18.220;2023-03-17T03:51:08;56.70;;;37.70;;
57291;SDS011;43144;50.972;18.220;2023-03-17T03:53:36;58.10;;;37.60;;
57291;SDS011;43144;50.972;18.220;2023-03-17T03:56:05;58.90;;;37.10;;
57291;SDS011;43144;50.972;18.220;2023-03-17T03:58:34;56.00;;;37.10;;
57291;SDS011;43144;50.972;18.220;2023-03-17T04:01:04;62.00;;;38.00;;
57291;SDS011;43144;50.972;18.220;2023-03-17T04:03:34;56.80;;;37.70;;
57291;SDS011;43144;50.972;18.220;2023-03-17T04:06:03;55.20;;;37.60;;
57291;SDS011;43144;50.972;18.220;2023-03-17T04:10:59;56.00;;;37.50;;
57291;SDS011;43144;50.972;18.220;2023-03-17T04:13:27;55.30;;;37.00;;
57291;SDS011;43144;50.972;18.220;2023-03-17T04:15:56;57.80;;;37.90;;
57291;SDS011;43144;50.972;18.220;2023-03-17T04:18:24;56.50;;;37.70;;
57291;SDS011;43144;50.972;18.220;2023-03-17T04:20:53;59.10;;;39.40;;
57291;SDS011;43144;50.972;18.220;2023-03-17T04:23:22;57.00;;;37.90;;
57291;SDS011;43144;50.972;18.220;2023-03-17T04:25:50;63.00;;;39.40;;
57291;SDS011;43144;50.972;18.220;2023-03-17T04:28:19;58.40;;;40.50;;
57291;SDS011;43144;50.972;18.220;2023-03-17T04:30:48;55.60;;;39.20;;
57291;SDS011;43144;50.972;18.220;2023-03-17T04:33:16;61.10;;;38.70;;
57291;SDS011;43144;50.972;18.220;2023-03-17T04:35:45;58.00;;;40.10;;
57291;SDS011;43144;50.972;18.220;2023-03-17T04:38:13;59.80;;;40.70;;
57291;SDS011;43144;50.972;18.220;2023-03-17T04:40:42;60.80;;;38.20;;
57291;SDS011;43144;50.972;18.220;2023-03-17T04:43:10;58.50;;;39.30;;
57291;SDS011;43144;50.972;18.220;2023-03-17T04:45:39;57.30;;;38.50;;
57291;SDS011;43144;50.972;18.220;2023-03-17T04:48:07;55.80;;;38.20;;
57291;SDS011;43144;50.972;18.220;2023-03-17T04:50:36;54.20;;;38.90;;
57291;SDS011;43144;50.972;18.220;2023-03-17T04:53:04;64.20;;;41.60;;
57291;SDS011;43144;50.972;18.220;2023-03-17T04:55:33;59.20;;;40.80;;
57291;SDS011;43144;50.972;18.220;2023-03-17T04:58:02;58.00;;;39.30;;
57291;SDS011;43144;50.972;18.220;2023-03-17T05:00:31;57.80;;;39.80;;
57291;SDS011;43144;50.972;18.220;2023-03-17T05:02:59;56.00;;;38.90;;
57291;SDS011;43144;50.972;18.220;2023-03-17T05:05:28;64.10;;;40.20;;
57291;SDS011;43144;50.972;18.220;2023-03-17T05:07:56;57.00;;;39.30;;
57291;SDS011;43144;50.972;18.220;2023-03-17T05:10:25;61.30;;;42.20;;
57291;SDS011;43144;50.972;18.220;2023-03-17T05:12:53;59.40;;;41.00;;
57291;SDS011;43144;50.972;18.220;2023-03-17T05:15:22;59.90;;;39.90;;
57291;SDS011;43144;50.972;18.220;2023-03-17T05:17:50;59.90;;;41.00;;
57291;SDS011;43144;50.972;18.220;2023-03-17T05:20:19;66.60;;;43.30;;
57291;SDS011;43144;50.972;18.220;2023-03-17T05:22:47;63.90;;;42.20;;
57291;SDS011;43144;50.972;18.220;2023-03-17T05:25:16;62.40;;;39.80;;
57291;SDS011;43144;50.972;18.220;2023-03-17T05:27:44;59.70;;;40.60;;
57291;SDS011;43144;50.972;18.220;2023-03-17T05:30:13;57.20;;;39.80;;
57291;SDS011;43144;50.972;18.220;2023-03-17T05:32:42;58.70;;;39.70;;
57291;SDS011;43144;50.972;18.220;2023-03-17T05:35:11;66.60;;;42.10;;
57291;SDS011;43144;50.972;18.220;2023-03-17T05:37:39;66.80;;;39.10;;
57291;SDS011;43144;50.972;18.220;2023-03-17T05:40:09;57.40;;;39.70;;
57291;SDS011;43144;50.972;18.220;2023-03-17T05:42:38;57.60;;;37.90;;
57291;SDS011;43144;50.972;18.220;2023-03-17T05:45:08;58.80;;;38.90;;
57291;SDS011;43144;50.972;18.220;2023-03-17T05:47:37;57.40;;;40.50;;
57291;SDS011;43144;50.972;18.220;2023-03-17T05:50:06;61.10;;;40.30;;
57291;SDS011;43144;50.972;18.220;2023-03-17T05:52:36;57.10;;;38.40;;
57291;SDS011;43144;50.972;18.220;2023-03-17T05:55:06;62.10;;;38.30;;
57291;SDS011;43144;50.972;18.220;2023-03-17T05:57:35;55.10;;;36.60;;
57291;SDS011;43144;50.972;18.220;2023-03-17T06:00:07;54.20;;;37.60;;
57291;SDS011;43144;50.972;18.220;2023-03-17T06:02:37;54.90;;;38.60;;
57291;SDS011;43144;50.972;18.220;2023-03-17T06:05:06;56.70;;;38.50;;
57291;SDS011;43144;50.972;18.220;2023-03-17T06:07:35;53.90;;;37.60;;
57291;SDS011;43144;50.972;18.220;2023-03-17T06:10:05;58.80;;;39.80;;
57291;SDS011;43144;50.972;18.220;2023-03-17T06:12:34;62.10;;;40.30;;
57291;SDS011;43144;50.972;18.220;2023-03-17T06:15:03;73.70;;;45.70;;
57291;SDS011;43144;50.972;18.220;2023-03-17T06:17:33;57.70;;;39.90;;
57291;SDS011;43144;50.972;18.220;2023-03-17T06:20:02;51.50;;;35.50;;
57291;SDS011;43144;50.972;18.220;2023-03-17T06:22:31;51.20;;;35.20;;
57291;SDS011;43144;50.972;18.220;2023-03-17T06:25:00;47.70;;;34.30;;
57291;SDS011;43144;50.972;18.220;2023-03-17T06:27:28;51.00;;;34.20;;
57291;SDS011;43144;50.972;18.220;2023-03-17T06:29:57;47.00;;;33.00;;
57291;SDS011;43144;50.972;18.220;2023-03-17T06:32:25;47.20;;;32.60;;
57291;SDS011;43144;50.972;18.220;2023-03-17T06:34:54;45.80;;;32.30;;
57291;SDS011;43144;50.972;18.220;2023-03-17T06:37:23;47.30;;;32.30;;
57291;SDS011;43144;50.972;18.220;2023-03-17T06:39:51;47.80;;;33.20;;
57291;SDS011;43144;50.972;18.220;2023-03-17T06:42:19;46.80;;;32.70;;
57291;SDS011;43144;50.972;18.220;2023-03-17T06:44:48;46.20;;;32.40;;
57291;SDS011;43144;50.972;18.220;2023-03-17T06:47:17;50.50;;;34.90;;
57291;SDS011;43144;50.972;18.220;2023-03-17T06:49:45;52.80;;;35.80;;
57291;SDS011;43144;50.972;18.220;2023-03-17T06:52:14;51.10;;;34.60;;
57291;SDS011;43144;50.972;18.220;2023-03-17T06:54:42;56.70;;;36.40;;
57291;SDS011;43144;50.972;18.220;2023-03-17T06:57:11;56.40;;;37.00;;
57291;SDS011;43144;50.972;18.220;2023-03-17T06:59:44;61.00;;;40.00;;
57291;SDS011;43144;50.972;18.220;2023-03-17T07:02:46;53.00;;;34.40;;
57291;SDS011;43144;50.972;18.220;2023-03-17T07:05:18;43.10;;;29.20;;
57291;SDS011;43144;50.972;18.220;2023-03-17T07:07:47;39.90;;;25.90;;
57291;SDS011;43144;50.972;18.220;2023-03-17T07:10:16;38.90;;;23.50;;
57291;SDS011;43144;50.972;18.220;2023-03-17T07:15:14;30.10;;;21.10;;
57291;SDS011;43144;50.972;18.220;2023-03-17T07:17:43;29.50;;;21.00;;
57291;SDS011;43144;50.972;18.220;2023-03-17T07:20:12;29.20;;;21.90;;
57291;SDS011;43144;50.972;18.220;2023-03-17T07:22:41;25.50;;;20.50;;
57291;SDS011;43144;50.972;18.220;2023-03-17T07:25:09;27.10;;;20.30;;
57291;SDS011;43144;50.972;18.220;2023-03-17T07:27:38;26.70;;;20.60;;
57291;SDS011;43144;50.972;18.220;2023-03-17T07:30:08;36.20;;;25.20;;
57291;SDS011;43144;50.972;18.220;2023-03-17T07:32:38;33.20;;;23.50;;
57291;SDS011;43144;50.972;18.220;2023-03-17T07:35:06;33.10;;;24.30;;
57291;SDS011;43144;50.972;18.220;2023-03-17T07:37:35;38.10;;;25.70;;
57291;SDS011;43144;50.972;18.220;2023-03-17T07:40:08;35.30;;;25.50;;
57291;SDS011;43144;50.972;18.220;2023-03-17T07:42:38;52.80;;;41.00;;
57291;SDS011;43144;50.972;18.220;2023-03-17T07:45:07;34.10;;;22.90;;
57291;SDS011;43144;50.972;18.220;2023-03-17T07:47:37;38.90;;;33.00;;
57291;SDS011;43144;50.972;18.220;2023-03-17T07:50:06;45.60;;;38.20;;
57291;SDS011;43144;50.972;18.220;2023-03-17T07:52:36;38.90;;;32.60;;
57291;SDS011;43144;50.972;18.220;2023-03-17T07:55:05;33.30;;;21.80;;
57291;SDS011;43144;50.972;18.220;2023-03-17T07:57:34;59.60;;;49.10;;
57291;SDS011;43144;50.972;18.220;2023-03-17T08:00:03;59.70;;;53.40;;
57291;SDS011;43144;50.972;18.220;2023-03-17T08:02:33;29.80;;;22.80;;
57291;SDS011;43144;50.972;18.220;2023-03-17T08:05:01;26.70;;;21.20;;
57291;SDS011;43144;50.972;18.220;2023-03-17T08:07:33;26.10;;;21.00;;
57291;SDS011;43144;50.972;18.220;2023-03-17T08:10:10;23.60;;;18.10;;
57291;SDS011;43144;50.972;18.220;2023-03-17T08:12:39;28.20;;;20.00;;
57291;SDS011;43144;50.972;18.220;2023-03-17T08:15:09;22.80;;;18.70;;
57291;SDS011;43144;50.972;18.220;2023-03-17T08:17:38;23.60;;;17.60;;
57291;SDS011;43144;50.972;18.220;2023-03-17T08:20:08;20.90;;;16.30;;
57291;SDS011;43144;50.972;18.220;2023-03-17T08:22:42;26.10;;;22.70;;
57291;SDS011;43144;50.972;18.220;2023-03-17T08:25:11;22.00;;;18.10;;
57291;SDS011;43144;50.972;18.220;2023-03-17T08:27:39;20.90;;;18.00;;
57291;SDS011;43144;50.972;18.220;2023-03-17T08:30:09;22.50;;;18.00;;
57291;SDS011;43144;50.972;18.220;2023-03-17T08:32:38;26.90;;;19.00;;
57291;SDS011;43144;50.972;18.220;2023-03-17T08:35:19;21.60;;;17.40;;
57291;SDS011;43144;50.972;18.220;2023-03-17T08:37:52;20.80;;;17.40;;
57291;SDS011;43144;50.972;18.220;2023-03-17T08:40:21;23.30;;;19.10;;
57291;SDS011;43144;50.972;18.220;2023-03-17T08:42:50;25.90;;;20.20;;
57291;SDS011;43144;50.972;18.220;2023-03-17T08:45:18;22.30;;;19.50;;
57291;SDS011;43144;50.972;18.220;2023-03-17T08:47:47;18.80;;;16.60;;
57291;SDS011;43144;50.972;18.220;2023-03-17T08:50:16;18.20;;;15.40;;
57291;SDS011;43144;50.972;18.220;2023-03-17T08:52:46;16.00;;;14.00;;
57291;SDS011;43144;50.972;18.220;2023-03-17T08:57:42;14.80;;;12.60;;
57291;SDS011;43144;50.972;18.220;2023-03-17T09:00:12;15.70;;;13.00;;
57291;SDS011;43144;50.972;18.220;2023-03-17T09:02:42;16.40;;;13.50;;
57291;SDS011;43144;50.972;18.220;2023-03-17T09:05:12;14.90;;;11.80;;
57291;SDS011;43144;50.972;18.220;2023-03-17T09:07:41;14.20;;;12.70;;
57291;SDS011;43144;50.972;18.220;2023-03-17T09:10:11;13.30;;;11.90;;
57291;SDS011;43144;50.972;18.220;2023-03-17T09:12:40;13.40;;;11.60;;
57291;SDS011;43144;50.972;18.220;2023-03-17T09:15:10;15.70;;;12.70;;
57291;SDS011;43144;50.972;18.220;2023-03-17T09:17:39;21.30;;;19.20;;
57291;SDS011;43144;50.972;18.220;2023-03-17T09:20:09;13.30;;;12.00;;
57291;SDS011;43144;50.972;18.220;2023-03-17T09:22:38;14.30;;;11.20;;
57291;SDS011;43144;50.972;18.220;2023-03-17T09:25:07;13.40;;;11.50;;
57291;SDS011;43144;50.972;18.220;2023-03-17T09:27:36;12.40;;;10.40;;
57291;SDS011;43144;50.972;18.220;2023-03-17T09:30:05;14.60;;;11.80;;
57291;SDS011;43144;50.972;18.220;2023-03-17T09:32:35;13.10;;;11.30;;
57291;SDS011;43144;50.972;18.220;2023-03-17T09:35:04;12.70;;;11.50;;
57291;SDS011;43144;50.972;18.220;2023-03-17T09:40:00;14.30;;;12.10;;
57291;SDS011;43144;50.972;18.220;2023-03-17T09:45:23;15.90;;;11.90;;
57291;SDS011;43144;50.972;18.220;2023-03-17T09:47:59;15.10;;;11.90;;
57291;SDS011;43144;50.972;18.220;2023-03-17T09:50:45;14.00;;;11.70;;
57291;SDS011;43144;50.972;18.220;2023-03-17T09:53:16;13.70;;;11.10;;
57291;SDS011;43144;50.972;18.220;2023-03-17T09:55:49;15.30;;;11.30;;
57291;SDS011;43144;50.972;18.220;2023-03-17T09:58:27;12.10;;;10.80;;
57291;SDS011;43144;50.972;18.220;2023-03-17T10:00:57;12.80;;;11.00;;
57291;SDS011;43144;50.972;18.220;2023-03-17T10:03:26;12.30;;;11.00;;
57291;SDS011;43144;50.972;18.220;2023-03-17T10:05:57;13.80;;;11.50;;
57291;SDS011;43144;50.972;18.220;2023-03-17T10:08:28;13.00;;;11.60;;
57291;SDS011;43144;50.972;18.220;2023-03-17T10:11:00;15.80;;;13.60;;
57291;SDS011;43144;50.972;18.220;2023-03-17T10:13:38;13.10;;;11.60;;
57291;SDS011;43144;50.972;18.220;2023-03-17T10:16:13;12.70;;;10.80;;
57291;SDS011;43144;50.972;18.220;2023-03-17T10:18:43;13.80;;;10.90;;
57291;SDS011;43144;50.972;18.220;2023-03-17T10:21:16;13.80;;;11.70;;
57291;SDS011;43144;50.972;18.220;2023-03-17T10:23:46;13.70;;;12.30;;
57291;SDS011;43144;50.972;18.220;2023-03-17T10:26:19;13.10;;;11.70;;
57291;SDS011;43144;50.972;18.220;2023-03-17T10:28:52;14.60;;;12.80;;
57291;SDS011;43144;50.972;18.220;2023-03-17T10:31:26;12.90;;;11.50;;
57291;SDS011;43144;50.972;18.220;2023-03-17T10:33:55;14.20;;;12.00;;
57291;SDS011;43144;50.972;18.220;2023-03-17T10:36:34;14.80;;;12.60;;
57291;SDS011;43144;50.972;18.220;2023-03-17T10:39:04;25.10;;;16.00;;
57291;SDS011;43144;50.972;18.220;2023-03-17T10:41:38;15.50;;;13.40;;
57291;SDS011;43144;50.972;18.220;2023-03-17T10:44:19;18.10;;;13.70;;
57291;SDS011;43144;50.972;18.220;2023-03-17T10:46:53;18.10;;;14.20;;
57291;SDS011;43144;50.972;18.220;2023-03-17T10:49:22;13.20;;;11.70;;
57291;SDS011;43144;50.972;18.220;2023-03-17T10:51:51;12.90;;;11.50;;
57291;SDS011;43144;50.972;18.220;2023-03-17T10:54:21;12.00;;;10.70;;
57291;SDS011;43144;50.972;18.220;2023-03-17T10:56:53;14.10;;;11.90;;
57291;SDS011;43144;50.972;18.220;2023-03-17T10:59:26;16.10;;;12.20;;
57291;SDS011;43144;50.972;18.220;2023-03-17T11:01:57;16.90;;;11.60;;
57291;SDS011;43144;50.972;18.220;2023-03-17T11:04:30;15.30;;;13.20;;
57291;SDS011;43144;50.972;18.220;2023-03-17T11:07:06;15.40;;;13.40;;
57291;SDS011;43144;50.972;18.220;2023-03-17T11:09:40;12.90;;;9.90;;
57291;SDS011;43144;50.972;18.220;2023-03-17T11:12:17;15.00;;;13.40;;
57291;SDS011;43144;50.972;18.220;2023-03-17T11:14:50;26.80;;;19.10;;
57291;SDS011;43144;50.972;18.220;2023-03-17T11:17:28;19.50;;;16.70;;
57291;SDS011;43144;50.972;18.220;2023-03-17T11:20:06;19.40;;;14.70;;
57291;SDS011;43144;50.972;18.220;2023-03-17T11:22:47;15.60;;;12.90;;
57291;SDS011;43144;50.972;18.220;2023-03-17T11:25:18;20.50;;;17.20;;
57291;SDS011;43144;50.972;18.220;2023-03-17T11:27:55;26.70;;;19.00;;
57291;SDS011;43144;50.972;18.220;2023-03-17T11:30:38;20.20;;;15.70;;
57291;SDS011;43144;50.972;18.220;2023-03-17T11:33:11;14.60;;;13.10;;
57291;SDS011;43144;50.972;18.220;2023-03-17T11:35:45;13.20;;;11.90;;
57291;SDS011;43144;50.972;18.220;2023-03-17T11:38:19;14.40;;;11.60;;
57291;SDS011;43144;50.972;18.220;2023-03-17T11:43:42;12.20;;;11.10;;
57291;SDS011;43144;50.972;18.220;2023-03-17T11:46:18;11.00;;;10.00;;
57291;SDS011;43144;50.972;18.220;2023-03-17T11:48:51;12.80;;;8.20;;
57291;SDS011;43144;50.972;18.220;2023-03-17T11:51:26;8.60;;;7.70;;
57291;SDS011;43144;50.972;18.220;2023-03-17T11:54:02;10.80;;;7.80;;
57291;SDS011;43144;50.972;18.220;2023-03-17T11:56:37;8.80;;;7.90;;
57291;SDS011;43144;50.972;18.220;2023-03-17T11:59:11;11.40;;;10.20;;
57291;SDS011;43144;50.972;18.220;2023-03-17T12:01:46;10.40;;;9.40;;
57291;SDS011;43144;50.972;18.220;2023-03-17T12:04:20;12.20;;;10.60;;
57291;SDS011;43144;50.972;18.220;2023-03-17T12:06:53;11.30;;;9.30;;
57291;SDS011;43144;50.972;18.220;2023-03-17T12:09:26;15.50;;;12.90;;
57291;SDS011;43144;50.972;18.220;2023-03-17T12:11:56;12.10;;;10.80;;
57291;SDS011;43144;50.972;18.220;2023-03-17T12:14:27;17.40;;;15.20;;
57291;SDS011;43144;50.972;18.220;2023-03-17T12:16:59;26.30;;;20.60;;
57291;SDS011;43144;50.972;18.220;2023-03-17T12:19:32;25.10;;;19.90;;
57291;SDS011;43144;50.972;18.220;2023-03-17T12:22:04;12.80;;;11.10;;
57291;SDS011;43144;50.972;18.220;2023-03-17T12:24:34;11.00;;;9.80;;
57291;SDS011;43144;50.972;18.220;2023-03-17T12:27:06;15.30;;;10.90;;
57291;SDS011;43144;50.972;18.220;2023-03-17T12:29:41;12.00;;;9.90;;
57291;SDS011;43144;50.972;18.220;2023-03-17T12:32:12;11.50;;;9.30;;
57291;SDS011;43144;50.972;18.220;2023-03-17T12:34:48;10.20;;;8.10;;
57291;SDS011;43144;50.972;18.220;2023-03-17T12:37:18;12.70;;;9.20;;
57291;SDS011;43144;50.972;18.220;2023-03-17T12:39:50;10.10;;;7.70;;
57291;SDS011;43144;50.972;18.220;2023-03-17T12:42:29;13.10;;;9.80;;
57291;SDS011;43144;50.972;18.220;2023-03-17T12:47:53;10.40;;;7.50;;
57291;SDS011;43144;50.972;18.220;2023-03-17T12:50:36;9.30;;;8.30;;
57291;SDS011;43144;50.972;18.220;2023-03-17T12:53:22;9.00;;;6.70;;
57291;SDS011;43144;50.972;18.220;2023-03-17T12:55:53;9.20;;;8.10;;
57291;SDS011;43144;50.972;18.220;2023-03-17T12:58:27;10.60;;;6.80;;
57291;SDS011;43144;50.972;18.220;2023-03-17T13:01:04;10.30;;;7.70;;
57291;SDS011;43144;50.972;18.220;2023-03-17T13:03:41;9.10;;;6.90;;
57291;SDS011;43144;50.972;18.220;2023-03-17T13:06:21;9.80;;;7.80;;
57291;SDS011;43144;50.972;18.220;2023-03-17T13:08:51;11.50;;;10.20;;
57291;SDS011;43144;50.972;18.220;2023-03-17T13:11:26;8.10;;;7.30;;
57291;SDS011;43144;50.972;18.220;2023-03-17T13:14:21;11.10;;;7.50;;
57291;SDS011;43144;50.972;18.220;2023-03-17T13:16:52;14.00;;;12.60;;
57291;SDS011;43144;50.972;18.220;2023-03-17T13:19:58;11.10;;;9.60;;
57291;SDS011;43144;50.972;18.220;2023-03-17T13:22:37;12.40;;;10.40;;
57291;SDS011;43144;50.972;18.220;2023-03-17T13:25:25;8.10;;;7.10;;
57291;SDS011;43144;50.972;18.220;2023-03-17T13:28:21;10.70;;;8.10;;
57291;SDS011;43144;50.972;18.220;2023-03-17T13:34:11;10.10;;;8.70;;
57291;SDS011;43144;50.972;18.220;2023-03-17T13:36:44;13.20;;;10.50;;
57291;SDS011;43144;50.972;18.220;2023-03-17T13:39:31;13.90;;;10.70;;
